Time;durP1;ratioP1;P1;durP2;ratioP2;P2;SDS_P1;SDS_P2;PMS_P1;PMS_P2;Temp;Humidity;BMP_temperature;BMP_pressure;BME280_temperature;BME280_humidity;BME280_pressure;Samples;Min_cycle;Max_cycle;Signal;HPM_P1;HPM_P2
2022/06/26 00:02:13;;;;;;;2.73;2.30;;;16.90;99.90;;;;;;5068388;28;20462;-93
2022/06/26 00:04:40;;;;;;;2.67;2.30;;;16.90;99.90;;;;;;5069966;28;20452;-93
2022/06/26 00:07:07;;;;;;;2.30;2.10;;;16.90;99.90;;;;;;5067587;28;20542;-93
2022/06/26 00:09:35;;;;;;;2.60;2.40;;;16.90;99.90;;;;;;5072741;28;20462;-93
2022/06/26 00:12:02;;;;;;;2.17;2.07;;;16.90;99.90;;;;;;5074688;28;20506;-93
2022/06/26 00:14:36;;;;;;;2.30;1.73;;;16.90;99.90;;;;;;5078887;28;20510;-94
2022/06/26 00:17:03;;;;;;;2.00;1.90;;;16.90;99.90;;;;;;5069106;28;20475;-92
2022/06/26 00:19:33;;;;;;;3.83;1.87;;;16.90;99.90;;;;;;5066917;28;20455;-93
2022/06/26 00:22:05;;;;;;;3.00;2.07;;;16.90;99.90;;;;;;5064975;28;20451;-92
2022/06/26 00:24:33;;;;;;;1.90;1.80;;;16.90;99.90;;;;;;5067236;28;20801;-93
2022/06/26 00:27:02;;;;;;;2.10;1.97;;;17.00;99.90;;;;;;5065567;28;20483;-93
2022/06/26 00:29:30;;;;;;;2.40;1.90;;;17.20;99.90;;;;;;5066024;28;20475;-93
2022/06/26 00:31:57;;;;;;;2.30;2.10;;;17.40;99.90;;;;;;5065946;28;20490;-93
2022/06/26 00:34:26;;;;;;;2.20;1.93;;;17.50;99.90;;;;;;5065810;28;20451;-93
2022/06/26 00:36:56;;;;;;;2.70;2.03;;;17.60;99.90;;;;;;5066244;28;20507;-93
2022/06/26 00:39:24;;;;;;;2.63;2.00;;;17.80;99.90;;;;;;5068208;28;20460;-93
2022/06/26 00:41:51;;;;;;;1.90;1.80;;;18.00;99.90;;;;;;5068143;28;20490;-92
2022/06/26 00:44:24;;;;;;;1.90;1.77;;;18.10;99.90;;;;;;5069310;28;20459;-94
2022/06/26 00:46:54;;;;;;;1.93;1.83;;;18.20;99.90;;;;;;5073276;28;20554;-93
2022/06/26 00:49:27;;;;;;;1.80;1.67;;;18.30;99.90;;;;;;5076362;28;20455;-93
2022/06/26 00:51:59;;;;;;;1.83;1.70;;;18.40;99.90;;;;;;5076195;28;20470;-93
2022/06/26 00:54:33;;;;;;;1.67;1.57;;;18.50;99.90;;;;;;5076846;28;20440;-93
2022/06/26 00:57:06;;;;;;;2.90;1.97;;;18.60;99.90;;;;;;5077112;28;20551;-93
2022/06/26 00:59:47;;;;;;;2.33;1.90;;;18.60;99.90;;;;;;5077342;28;20452;-91
2022/06/26 01:02:15;;;;;;;3.83;2.30;;;18.70;99.90;;;;;;5077464;28;20455;-94
2022/06/26 01:04:49;;;;;;;3.50;2.27;;;18.70;99.90;;;;;;5077390;28;20506;-93
2022/06/26 01:07:16;;;;;;;2.13;2.00;;;18.80;99.90;;;;;;5075944;28;20471;-93
2022/06/26 01:09:45;;;;;;;2.03;1.93;;;18.80;99.90;;;;;;5074946;28;20471;-93
2022/06/26 01:12:15;;;;;;;2.07;1.87;;;18.80;99.90;;;;;;5074742;28;20482;-93
2022/06/26 01:14:46;;;;;;;2.07;1.93;;;18.80;99.90;;;;;;5076109;28;20499;-92
2022/06/26 01:17:13;;;;;;;2.07;1.93;;;18.80;99.90;;;;;;5075208;28;20502;-94
2022/06/26 01:19:40;;;;;;;2.50;2.30;;;18.90;99.90;;;;;;5075146;28;20443;-93
2022/06/26 01:22:11;;;;;;;2.03;1.93;;;18.90;99.90;;;;;;5075813;28;20447;-92
2022/06/26 01:24:39;;;;;;;2.13;1.90;;;18.90;99.90;;;;;;5076208;28;20439;-94
2022/06/26 01:27:10;;;;;;;3.60;2.03;;;18.90;99.90;;;;;;5074980;28;20542;-93
2022/06/26 01:29:36;;;;;;;2.37;2.17;;;18.90;99.90;;;;;;5074981;28;20466;-92
2022/06/26 01:32:04;;;;;;;3.63;1.87;;;18.90;99.90;;;;;;5075875;28;20489;-93
2022/06/26 01:34:33;;;;;;;3.07;2.33;;;18.90;99.90;;;;;;5075873;28;20871;-92
2022/06/26 01:37:05;;;;;;;2.30;2.10;;;18.90;99.90;;;;;;5075758;28;20444;-94
2022/06/26 01:39:38;;;;;;;2.30;2.10;;;18.90;99.90;;;;;;5075989;28;20443;-93
2022/06/26 01:42:08;;;;;;;2.50;2.30;;;18.90;99.90;;;;;;5075941;28;20444;-93
2022/06/26 01:44:37;;;;;;;3.17;2.10;;;18.90;99.90;;;;;;5075949;28;20439;-92
2022/06/26 01:47:04;;;;;;;3.53;2.20;;;18.80;99.90;;;;;;5075433;28;20481;-93
2022/06/26 01:49:39;;;;;;;2.40;2.20;;;18.80;99.90;;;;;;5075404;28;20435;-93
2022/06/26 01:52:08;;;;;;;2.20;2.00;;;18.80;99.90;;;;;;5076004;28;20482;-93
2022/06/26 01:54:37;;;;;;;2.40;2.20;;;18.80;99.90;;;;;;5076459;28;20490;-93
2022/06/26 01:57:06;;;;;;;3.23;2.40;;;18.80;99.90;;;;;;5075135;28;20525;-92
2022/06/26 01:59:32;;;;;;;2.63;2.43;;;18.80;99.90;;;;;;5075046;28;20451;-93
2022/06/26 02:02:01;;;;;;;2.23;2.03;;;18.70;99.90;;;;;;5074966;28;20535;-92
2022/06/26 02:04:30;;;;;;;2.60;1.90;;;18.70;99.90;;;;;;5075386;28;20490;-93
2022/06/26 02:07:02;;;;;;;2.47;2.20;;;18.60;99.90;;;;;;5074889;28;20463;-93
2022/06/26 02:15:12;;;;;;;3.77;2.20;;;18.50;99.90;;;;;;5074962;28;20521;-93
2022/06/26 02:17:39;;;;;;;1.80;1.70;;;18.50;99.90;;;;;;5077562;28;20482;-93
2022/06/26 02:20:12;;;;;;;2.07;1.97;;;18.50;99.90;;;;;;5077513;28;20443;-93
2022/06/26 02:22:43;;;;;;;1.90;1.70;;;18.40;99.90;;;;;;5079990;28;20458;-93
2022/06/26 02:25:24;;;;;;;2.10;1.90;;;18.40;99.90;;;;;;5080690;28;20455;-92
2022/06/26 02:27:51;;;;;;;1.93;1.80;;;18.40;99.90;;;;;;5133314;22;20990;-68
2022/06/26 02:30:18;;;;;;;1.97;1.80;;;18.40;99.90;;;;;;5053968;28;20455;-68
2022/06/26 02:32:45;;;;;;;3.20;2.10;;;18.40;99.90;;;;;;5054619;28;20457;-68
2022/06/26 02:35:12;;;;;;;2.43;2.23;;;18.30;99.90;;;;;;5054556;28;20455;-68
2022/06/26 02:37:38;;;;;;;2.13;2.03;;;18.30;99.90;;;;;;5054211;28;20490;-68
2022/06/26 02:40:06;;;;;;;2.77;2.00;;;18.30;99.90;;;;;;5053914;28;20462;-68
2022/06/26 02:42:33;;;;;;;2.43;2.27;;;18.20;99.90;;;;;;5054172;28;20459;-68
2022/06/26 02:45:01;;;;;;;2.00;1.90;;;18.20;99.90;;;;;;5054303;28;20466;-68
2022/06/26 02:47:28;;;;;;;2.60;2.40;;;18.20;99.90;;;;;;5054052;28;20506;-68
2022/06/26 02:49:54;;;;;;;2.13;2.00;;;18.10;99.90;;;;;;5053752;28;20672;-68
2022/06/26 02:52:21;;;;;;;1.80;1.70;;;18.10;99.90;;;;;;5053995;28;20569;-68
2022/06/26 02:54:48;;;;;;;2.40;2.20;;;18.10;99.90;;;;;;5054414;28;20463;-69
2022/06/26 02:57:14;;;;;;;2.37;1.90;;;18.10;99.90;;;;;;5054466;28;20846;-69
2022/06/26 02:59:41;;;;;;;2.53;2.33;;;18.00;99.90;;;;;;5053802;28;20459;-68
2022/06/26 03:02:09;;;;;;;2.43;2.23;;;18.00;99.90;;;;;;5053971;28;20459;-68
2022/06/26 03:04:36;;;;;;;2.53;2.33;;;18.00;99.90;;;;;;5053960;28;20860;-68
2022/06/26 03:07:03;;;;;;;2.63;2.03;;;17.90;99.90;;;;;;5053974;28;20505;-68
2022/06/26 03:09:30;;;;;;;2.60;2.40;;;17.90;99.90;;;;;;5053233;28;20467;-67
2022/06/26 03:11:57;;;;;;;2.30;2.10;;;17.80;99.90;;;;;;5053774;28;20487;-68
2022/06/26 03:14:24;;;;;;;2.43;2.23;;;17.80;99.90;;;;;;5053575;28;20459;-67
2022/06/26 03:16:50;;;;;;;2.47;2.27;;;17.80;99.90;;;;;;5053749;28;20521;-68
2022/06/26 03:19:18;;;;;;;2.57;2.37;;;17.80;99.90;;;;;;5053161;28;20460;-68
2022/06/26 03:21:45;;;;;;;2.27;2.07;;;17.80;99.90;;;;;;5053504;28;20462;-68
2022/06/26 03:24:12;;;;;;;2.50;2.30;;;17.70;99.90;;;;;;5053607;28;20467;-68
2022/06/26 03:26:39;;;;;;;1.97;1.80;;;17.70;99.90;;;;;;5051890;28;20463;-68
2022/06/26 03:29:08;;;;;;;2.30;2.10;;;17.60;99.90;;;;;;5053410;28;20455;-68
2022/06/26 03:31:35;;;;;;;2.33;2.13;;;17.60;99.90;;;;;;5053018;28;20579;-68
2022/06/26 03:34:02;;;;;;;2.83;2.10;;;17.60;99.90;;;;;;5053487;28;20471;-68
2022/06/26 03:36:31;;;;;;;3.10;2.60;;;17.50;99.90;;;;;;5053345;28;20943;-68
2022/06/26 03:38:57;;;;;;;2.20;1.90;;;17.50;99.90;;;;;;5053290;28;20467;-68
2022/06/26 03:41:24;;;;;;;2.60;2.40;;;17.50;99.90;;;;;;5052743;28;20455;-67
2022/06/26 03:43:51;;;;;;;2.70;2.40;;;17.50;99.90;;;;;;5053306;28;20816;-68
2022/06/26 03:46:18;;;;;;;3.50;2.13;;;17.50;99.90;;;;;;5053041;28;20467;-68
2022/06/26 03:48:45;;;;;;;2.83;2.30;;;17.40;99.90;;;;;;5052890;28;20482;-68
2022/06/26 03:51:12;;;;;;;2.40;2.20;;;17.40;99.90;;;;;;5052520;28;20505;-68
2022/06/26 03:53:40;;;;;;;2.43;2.10;;;17.40;99.90;;;;;;5052827;28;20463;-68
2022/06/26 03:56:07;;;;;;;2.50;2.30;;;17.40;99.90;;;;;;5053019;28;20459;-68
2022/06/26 03:58:33;;;;;;;2.63;2.43;;;17.40;99.90;;;;;;5052658;28;20482;-67
2022/06/26 04:01:00;;;;;;;2.40;2.20;;;17.40;99.90;;;;;;5052467;28;20463;-68
2022/06/26 04:03:27;;;;;;;2.67;2.37;;;17.40;99.90;;;;;;5052551;28;20466;-67
2022/06/26 04:05:54;;;;;;;3.83;2.53;;;17.40;99.90;;;;;;5052804;28;20466;-67
2022/06/26 04:08:20;;;;;;;2.43;2.23;;;17.40;99.90;;;;;;5052772;28;20841;-67
2022/06/26 04:10:48;;;;;;;3.60;2.10;;;17.40;99.90;;;;;;5052084;28;20459;-68
2022/06/26 04:13:16;;;;;;;2.20;2.10;;;17.50;99.90;;;;;;5052831;28;20463;-68
2022/06/26 04:15:43;;;;;;;2.53;2.27;;;17.50;99.90;;;;;;5052476;28;20506;-67
2022/06/26 04:18:10;;;;;;;2.70;2.50;;;17.50;99.90;;;;;;5052320;28;20490;-68
2022/06/26 04:20:37;;;;;;;3.30;2.40;;;17.50;99.90;;;;;;5051845;28;20463;-68
2022/06/26 04:23:05;;;;;;;3.00;2.70;;;17.50;99.90;;;;;;5052364;28;20463;-68
2022/06/26 04:25:34;;;;;;;3.00;2.80;;;17.50;99.90;;;;;;5052387;28;20459;-68
2022/06/26 04:28:03;;;;;;;2.90;2.60;;;17.50;99.90;;;;;;5052150;28;20876;-68
2022/06/26 04:30:29;;;;;;;2.77;2.57;;;17.40;99.90;;;;;;5051634;28;20459;-68
2022/06/26 04:32:56;;;;;;;3.93;2.43;;;17.50;99.90;;;;;;5052058;28;20491;-68
2022/06/26 04:35:23;;;;;;;3.30;3.00;;;17.40;99.90;;;;;;5052045;28;20462;-67
2022/06/26 04:37:50;;;;;;;3.03;2.60;;;17.50;99.90;;;;;;5051741;28;20818;-67
2022/06/26 04:40:17;;;;;;;4.00;2.80;;;17.50;99.90;;;;;;5051608;28;20478;-68
2022/06/26 04:42:46;;;;;;;5.50;2.20;;;17.40;99.90;;;;;;5051893;28;20479;-68
2022/06/26 04:45:14;;;;;;;2.30;2.10;;;17.40;99.90;;;;;;5052080;28;20463;-68
2022/06/26 04:47:41;;;;;;;2.67;2.23;;;17.40;99.90;;;;;;5051638;28;20843;-68
2022/06/26 04:50:09;;;;;;;3.00;2.43;;;17.40;99.90;;;;;;5051299;28;20834;-68
2022/06/26 04:52:35;;;;;;;2.20;2.10;;;17.50;99.90;;;;;;5051515;28;20487;-67
2022/06/26 04:55:03;;;;;;;2.10;1.90;;;17.50;99.90;;;;;;5051823;28;20841;-68
2022/06/26 04:57:29;;;;;;;2.50;2.30;;;17.60;99.90;;;;;;5051368;28;21013;-68
2022/06/26 04:59:56;;;;;;;2.40;2.13;;;17.60;99.90;;;;;;5051313;28;20463;-68
2022/06/26 05:02:24;;;;;;;3.20;2.67;;;17.60;99.90;;;;;;5051509;28;20476;-68
2022/06/26 05:04:51;;;;;;;2.30;2.10;;;17.60;99.90;;;;;;5051642;28;20582;-68
2022/06/26 05:07:18;;;;;;;4.00;3.30;;;17.70;99.90;;;;;;5051483;28;20483;-67
2022/06/26 05:09:44;;;;;;;2.67;2.47;;;17.70;99.90;;;;;;5051138;28;20490;-67
2022/06/26 05:12:11;;;;;;;3.00;2.70;;;17.80;99.90;;;;;;5051438;28;20492;-67
2022/06/26 05:14:38;;;;;;;2.30;2.10;;;17.80;99.90;;;;;;5051303;28;20467;-68
2022/06/26 05:17:05;;;;;;;2.87;2.67;;;17.90;99.90;;;;;;5051330;28;20899;-68
2022/06/26 05:19:33;;;;;;;2.70;2.50;;;17.90;99.90;;;;;;5050924;28;20837;-68
2022/06/26 05:22:02;;;;;;;2.40;2.20;;;18.00;99.90;;;;;;5051424;28;20460;-68
2022/06/26 05:24:29;;;;;;;3.00;2.37;;;18.00;99.90;;;;;;5051293;28;20516;-69
2022/06/26 05:26:56;;;;;;;2.50;2.30;;;18.00;99.90;;;;;;5051058;28;20492;-67
2022/06/26 05:29:23;;;;;;;2.80;2.30;;;18.10;99.90;;;;;;5050750;28;20480;-70
2022/06/26 05:31:50;;;;;;;4.00;2.40;;;18.10;99.90;;;;;;5051063;28;20853;-68
2022/06/26 05:34:17;;;;;;;3.37;2.53;;;18.20;99.90;;;;;;5051180;28;20495;-68
2022/06/26 05:36:45;;;;;;;3.33;2.43;;;18.20;99.90;;;;;;5050953;28;20479;-68
2022/06/26 05:39:11;;;;;;;3.13;2.40;;;18.20;99.90;;;;;;5050894;28;20876;-68
2022/06/26 05:41:38;;;;;;;4.40;2.47;;;18.20;99.90;;;;;;5050906;28;20470;-69
2022/06/26 05:44:05;;;;;;;2.60;2.40;;;18.20;99.90;;;;;;5051157;28;20547;-68
2022/06/26 05:46:32;;;;;;;3.23;2.90;;;18.30;99.90;;;;;;5050723;28;20467;-68
2022/06/26 05:48:59;;;;;;;3.70;3.30;;;18.30;99.90;;;;;;5051025;28;20459;-67
2022/06/26 05:51:25;;;;;;;2.80;2.60;;;18.30;99.90;;;;;;5049870;28;20470;-68
2022/06/26 05:53:53;;;;;;;2.50;2.30;;;18.40;99.90;;;;;;5050942;28;20466;-68
2022/06/26 05:56:20;;;;;;;2.57;2.37;;;18.50;99.90;;;;;;5050809;28;20490;-67
2022/06/26 05:58:47;;;;;;;3.13;2.83;;;18.60;99.90;;;;;;5050792;28;20470;-69
2022/06/26 06:01:14;;;;;;;3.03;2.73;;;18.70;99.90;;;;;;5050439;28;20459;-68
2022/06/26 06:03:41;;;;;;;3.47;2.70;;;18.80;99.90;;;;;;5050687;28;20451;-68
2022/06/26 06:06:08;;;;;;;2.80;2.60;;;18.90;99.90;;;;;;5050855;28;20946;-68
2022/06/26 06:08:34;;;;;;;2.13;2.03;;;18.90;99.90;;;;;;5050753;28;20475;-67
2022/06/26 06:11:02;;;;;;;3.07;2.50;;;19.00;99.90;;;;;;5050343;28;20463;-68
2022/06/26 06:13:29;;;;;;;3.20;2.23;;;19.10;99.90;;;;;;5050510;28;20491;-67
2022/06/26 06:15:56;;;;;;;2.40;2.20;;;19.20;99.90;;;;;;5050640;28;20462;-68
2022/06/26 06:18:22;;;;;;;2.53;2.33;;;19.20;99.90;;;;;;5050430;28;20480;-69
2022/06/26 06:20:50;;;;;;;2.20;2.00;;;19.30;99.90;;;;;;5050354;28;20463;-67
2022/06/26 06:23:16;;;;;;;2.00;1.90;;;19.40;99.90;;;;;;5050770;28;20459;-68
2022/06/26 06:25:43;;;;;;;2.97;2.10;;;19.50;99.90;;;;;;5050467;28;20460;-68
2022/06/26 06:28:11;;;;;;;2.43;2.10;;;19.60;99.90;;;;;;5050401;28;20490;-67
2022/06/26 06:30:38;;;;;;;2.87;2.47;;;19.60;99.90;;;;;;5049911;28;20471;-68
2022/06/26 06:33:05;;;;;;;2.10;1.97;;;19.70;99.90;;;;;;5049594;28;20492;-67
2022/06/26 06:35:31;;;;;;;2.07;1.97;;;19.70;99.90;;;;;;5050501;28;20878;-68
2022/06/26 06:37:58;;;;;;;3.57;2.30;;;19.60;99.90;;;;;;5050605;28;20862;-68
2022/06/26 06:40:25;;;;;;;2.23;2.10;;;19.60;99.90;;;;;;5050104;28;20470;-69
2022/06/26 06:42:52;;;;;;;2.30;2.10;;;19.50;99.90;;;;;;5050557;28;20462;-67
2022/06/26 06:45:20;;;;;;;3.63;1.97;;;19.50;99.90;;;;;;5050339;28;20969;-68
2022/06/26 06:47:46;;;;;;;2.23;2.03;;;19.40;99.90;;;;;;5050170;28;20495;-68
2022/06/26 06:50:13;;;;;;;2.20;2.00;;;19.50;99.90;;;;;;5049950;28;20466;-67
2022/06/26 06:52:40;;;;;;;6.80;2.03;;;19.60;99.90;;;;;;5050262;28;20997;-67
2022/06/26 06:55:07;;;;;;;3.60;1.80;;;19.80;99.90;;;;;;5050459;28;20459;-68
2022/06/26 06:57:34;;;;;;;1.63;1.30;;;19.90;99.90;;;;;;5050178;28;20486;-70
2022/06/26 07:00:01;;;;;;;1.57;1.47;;;20.10;99.90;;;;;;5050186;28;20459;-70
2022/06/26 07:02:31;;;;;;;1.50;1.40;;;20.20;99.90;;;;;;5052907;28;20463;-68
2022/06/26 07:04:58;;;;;;;1.50;1.40;;;20.30;99.90;;;;;;5054330;28;20534;-68
2022/06/26 07:07:24;;;;;;;3.40;1.40;;;20.30;99.90;;;;;;5053664;28;20487;-66
2022/06/26 07:09:51;;;;;;;1.60;1.40;;;20.30;99.90;;;;;;5053422;28;20470;-68
2022/06/26 07:12:17;;;;;;;1.70;1.60;;;20.40;99.90;;;;;;5053707;28;20475;-67
2022/06/26 07:14:44;;;;;;;1.50;1.23;;;20.50;99.90;;;;;;5053690;28;20459;-68
2022/06/26 07:17:11;;;;;;;1.60;1.50;;;20.60;99.90;;;;;;5053880;28;20859;-67
2022/06/26 07:19:39;;;;;;;1.30;1.20;;;20.70;99.90;;;;;;5053047;28;20459;-68
2022/06/26 07:22:06;;;;;;;1.63;1.53;;;20.70;99.90;;;;;;5053617;28;20460;-67
2022/06/26 07:24:33;;;;;;;1.97;1.63;;;20.70;99.90;;;;;;5053486;28;20495;-68
2022/06/26 07:27:00;;;;;;;2.00;1.63;;;20.80;99.90;;;;;;5053393;28;20521;-68
2022/06/26 07:29:26;;;;;;;2.07;1.70;;;20.90;99.90;;;;;;5052689;28;20463;-67
2022/06/26 07:31:53;;;;;;;1.87;1.77;;;21.00;99.90;;;;;;5053266;28;20970;-68
2022/06/26 07:34:21;;;;;;;2.30;1.90;;;21.00;99.90;;;;;;5053613;28;20463;-67
2022/06/26 07:36:51;;;;;;;1.57;1.47;;;21.10;99.90;;;;;;5053194;28;20479;-68
2022/06/26 07:39:19;;;;;;;1.70;1.60;;;21.10;99.90;;;;;;5053364;28;20823;-68
2022/06/26 07:41:47;;;;;;;1.63;1.53;;;21.10;99.90;;;;;;5053184;28;20491;-68
2022/06/26 07:44:14;;;;;;;1.50;1.40;;;21.30;99.90;;;;;;5053167;28;20455;-68
2022/06/26 07:46:41;;;;;;;1.93;1.73;;;21.40;99.90;;;;;;5053120;28;20484;-68
2022/06/26 07:49:09;;;;;;;2.17;1.90;;;21.50;99.90;;;;;;5052929;28;20482;-68
2022/06/26 07:51:36;;;;;;;2.03;1.77;;;21.60;99.90;;;;;;5052782;28;20455;-68
2022/06/26 07:54:05;;;;;;;4.00;1.77;;;21.70;99.90;;;;;;5053146;28;20889;-69
2022/06/26 07:56:32;;;;;;;1.70;1.57;;;21.70;99.90;;;;;;5052554;28;20807;-67
2022/06/26 07:58:59;;;;;;;2.03;1.80;;;21.70;99.90;;;;;;5052933;28;20455;-68
2022/06/26 08:01:26;;;;;;;1.90;1.80;;;21.80;99.90;;;;;;5052300;28;20456;-69
2022/06/26 08:03:53;;;;;;;2.37;2.00;;;21.90;99.90;;;;;;5053064;28;20463;-68
2022/06/26 08:06:20;;;;;;;2.00;1.83;;;22.00;99.90;;;;;;5052712;28;20898;-69
2022/06/26 08:08:47;;;;;;;1.73;1.63;;;22.10;99.90;;;;;;5052618;28;20462;-68
2022/06/26 08:11:15;;;;;;;2.07;1.87;;;22.10;99.90;;;;;;5052149;28;20864;-69
2022/06/26 08:13:42;;;;;;;2.23;2.00;;;22.10;99.90;;;;;;5051764;28;20487;-68
2022/06/26 08:16:09;;;;;;;1.90;1.80;;;22.20;99.90;;;;;;5052661;28;20486;-66
2022/06/26 08:18:36;;;;;;;2.13;1.90;;;22.30;99.90;;;;;;5052310;28;20850;-68
2022/06/26 08:22:00;;;;;;;2.10;1.63;;;22.40;99.90;;;;;;5051998;28;20464;-68
2022/06/26 08:23:50;;;;;;;2.20;2.00;;;22.40;99.90;;;;;;5052244;28;20854;-68
2022/06/26 08:26:18;;;;;;;1.70;1.60;;;22.40;99.90;;;;;;5052203;28;20509;-68
2022/06/26 08:28:45;;;;;;;2.00;1.80;;;22.50;99.90;;;;;;5106523;23;20487;-93
2022/06/26 08:31:12;;;;;;;1.90;1.70;;;22.60;99.90;;;;;;5068291;28;20443;-93
2022/06/26 08:33:38;;;;;;;2.40;1.73;;;22.70;99.90;;;;;;5065609;28;20578;-92
2022/06/26 08:36:06;;;;;;;4.90;2.37;;;22.90;99.90;;;;;;5064521;28;20792;-92
2022/06/26 08:38:32;;;;;;;2.10;2.00;;;23.00;99.90;;;;;;5065082;28;20483;-93
2022/06/26 08:41:00;;;;;;;3.47;2.47;;;23.00;99.90;;;;;;5066594;28;20466;-93
2022/06/26 08:43:29;;;;;;;1.80;1.70;;;23.10;99.90;;;;;;5066594;28;20455;-93
2022/06/26 08:45:56;;;;;;;1.73;1.63;;;23.20;99.90;;;;;;5068056;28;20462;-92
2022/06/26 08:48:27;;;;;;;2.80;1.70;;;23.30;99.90;;;;;;5066842;28;20852;-93
2022/06/26 08:50:54;;;;;;;2.00;1.80;;;23.40;99.90;;;;;;5069689;28;20453;-94
2022/06/26 08:53:22;;;;;;;2.30;1.67;;;23.60;99.90;;;;;;5074943;28;20555;-91
2022/06/26 08:55:49;;;;;;;1.63;1.53;;;23.70;99.90;;;;;;5071116;28;20459;-93
2022/06/26 08:58:16;;;;;;;2.00;1.83;;;23.80;99.90;;;;;;5067154;28;20479;-95
2022/06/26 09:00:46;;;;;;;2.73;2.00;;;23.80;99.90;;;;;;5067543;28;20463;-93
2022/06/26 09:03:14;;;;;;;1.80;1.70;;;24.00;99.90;;;;;;5069756;28;20460;-91
2022/06/26 09:05:41;;;;;;;2.47;1.90;;;24.00;99.90;;;;;;5068352;28;20467;-93
2022/06/26 09:08:17;;;;;;;4.70;2.17;;;24.10;99.90;;;;;;5071071;28;20490;-93
2022/06/26 09:10:45;;;;;;;2.17;1.90;;;24.20;99.90;;;;;;5071441;28;20455;-93
2022/06/26 09:13:12;;;;;;;2.50;2.30;;;24.30;99.90;;;;;;5073481;28;20475;-93
2022/06/26 09:15:41;;;;;;;1.70;1.60;;;24.30;99.90;;;;;;5068914;28;20470;-93
2022/06/26 09:18:13;;;;;;;2.93;1.87;;;24.40;99.90;;;;;;5063459;28;20501;-93
2022/06/26 09:20:52;;;;;;;2.03;1.63;;;24.50;99.90;;;;;;5063978;28;20460;-94
2022/06/26 09:23:19;;;;;;;2.20;2.00;;;24.50;99.90;;;;;;5060786;28;20458;-93
2022/06/26 09:25:46;;;;;;;1.60;1.50;;;24.60;99.90;;;;;;5061722;28;20455;-93
2022/06/26 09:28:14;;;;;;;2.13;1.93;;;24.60;99.90;;;;;;5062208;28;20483;-94
2022/06/26 09:30:49;;;;;;;2.50;2.00;;;24.70;99.90;;;;;;5063507;28;20510;-94
2022/06/26 09:33:18;;;;;;;1.80;1.70;;;24.80;99.90;;;;;;5063092;28;20483;-93
2022/06/26 09:35:45;;;;;;;2.50;1.90;;;24.90;99.90;;;;;;5063943;28;20527;-93
2022/06/26 09:38:17;;;;;;;1.80;1.70;;;25.10;99.90;;;;;;5064097;28;20490;-93
2022/06/26 09:40:52;;;;;;;1.87;1.70;;;25.40;99.90;;;;;;5063642;28;20684;-94
2022/06/26 09:43:33;;;;;;;3.37;1.30;;;25.60;99.90;;;;;;5063871;28;20968;-94
2022/06/26 09:46:01;;;;;;;1.50;1.40;;;25.90;99.90;;;;;;5062343;28;20474;-93
2022/06/26 09:48:30;;;;;;;2.00;1.77;;;26.00;99.90;;;;;;5063240;28;20483;-94
2022/06/26 09:50:57;;;;;;;1.70;1.60;;;26.00;99.90;;;;;;5069994;28;20451;-92
2022/06/26 09:53:26;;;;;;;1.80;1.70;;;26.00;99.90;;;;;;5075744;28;20487;-94
2022/06/26 09:55:54;;;;;;;1.60;1.43;;;26.20;99.90;;;;;;5068139;28;20482;-93
2022/06/26 09:58:21;;;;;;;1.70;1.60;;;26.20;99.90;;;;;;5065294;28;20473;-93
2022/06/26 10:06:26;;;;;;;2.80;1.70;;;26.20;99.90;;;;;;5065440;28;20447;-94
2022/06/26 10:08:54;;;;;;;3.60;2.47;;;26.00;99.90;;;;;;5067107;28;20474;-94
2022/06/26 10:11:23;;;;;;;1.97;1.80;;;25.90;99.90;;;;;;5071141;28;20451;-93
2022/06/26 10:13:51;;;;;;;3.00;1.90;;;26.00;99.90;;;;;;5070232;28;20487;-93
2022/06/26 10:16:40;;;;;;;2.03;1.73;;;26.20;99.90;;;;;;5069851;28;20969;-94
2022/06/26 10:19:21;;;;;;;1.80;1.70;;;26.40;99.90;;;;;;5067729;28;20474;-91
2022/06/26 10:21:48;;;;;;;1.77;1.67;;;26.40;99.90;;;;;;5066875;28;20469;-93
2022/06/26 10:24:16;;;;;;;1.80;1.50;;;26.40;99.90;;;;;;5067246;28;20456;-92
2022/06/26 10:26:52;;;;;;;2.13;1.40;;;26.40;99.90;;;;;;5068348;28;20459;-93
2022/06/26 10:29:18;;;;;;;3.00;2.13;;;26.50;99.90;;;;;;5066787;28;20493;-93
2022/06/26 10:31:47;;;;;;;1.93;1.53;;;26.60;99.90;;;;;;5067864;28;20458;-93
2022/06/26 10:34:19;;;;;;;1.40;1.30;;;26.40;99.90;;;;;;5066882;28;20483;-92
2022/06/26 10:36:57;;;;;;;1.83;1.73;;;26.40;99.90;;;;;;5071822;28;20483;-94
2022/06/26 10:39:24;;;;;;;1.50;1.40;;;26.60;99.90;;;;;;5071653;28;20979;-93
2022/06/26 10:44:45;;;;;;;2.03;1.60;;;27.00;99.90;;;;;;5072651;28;20464;-93
2022/06/26 10:47:16;;;;;;;1.70;1.60;;;27.10;99.90;;;;;;5077831;28;20466;-93
2022/06/26 10:49:54;;;;;;;1.97;1.77;;;27.10;99.90;;;;;;5079475;28;20466;-94
2022/06/26 10:52:27;;;;;;;3.13;1.57;;;27.30;99.90;;;;;;5069675;28;20457;-94
2022/06/26 10:54:55;;;;;;;2.03;1.93;;;27.40;99.90;;;;;;5068083;28;20510;-93
2022/06/26 10:57:34;;;;;;;1.90;1.70;;;27.60;99.90;;;;;;5066874;28;20546;-93
2022/06/26 11:00:02;;;;;;;1.90;1.80;;;27.80;99.90;;;;;;5067826;28;20485;-93
2022/06/26 11:02:37;;;;;;;1.60;1.50;;;27.90;99.90;;;;;;5067682;28;20457;-93
2022/06/26 11:05:08;;;;;;;1.67;1.57;;;27.90;99.90;;;;;;5068034;28;20944;-93
2022/06/26 11:07:47;;;;;;;2.13;1.90;;;27.80;99.90;;;;;;5068996;28;20480;-93
2022/06/26 11:10:18;;;;;;;1.70;1.60;;;27.70;99.90;;;;;;5071753;28;20466;-94
2022/06/26 11:12:46;;;;;;;1.70;1.60;;;27.50;99.90;;;;;;5074979;28;20456;-93
2022/06/26 11:15:30;;;;;;;1.60;1.50;;;27.30;99.90;;;;;;5069033;28;20487;-94
2022/06/26 11:17:59;;;;;;;1.90;1.70;;;27.20;99.90;;;;;;5067824;28;20488;-93
2022/06/26 11:20:47;;;;;;;1.67;1.57;;;27.30;99.90;;;;;;5074114;28;20462;-93
2022/06/26 11:23:19;;;;;;;1.87;1.43;;;27.30;99.90;;;;;;5076804;28;20530;-93
2022/06/26 11:25:47;;;;;;;1.83;1.33;;;27.30;99.90;;;;;;5073509;28;20455;-94
2022/06/26 11:28:14;;;;;;;2.03;1.70;;;27.20;99.90;;;;;;5073697;28;20489;-93
2022/06/26 11:30:53;;;;;;;1.80;1.70;;;27.10;99.90;;;;;;5076222;28;20452;-93
2022/06/26 11:33:25;;;;;;;1.73;1.60;;;27.10;99.90;;;;;;5078877;28;20443;-92
2022/06/26 11:35:54;;;;;;;1.80;1.70;;;27.10;99.90;;;;;;5078157;28;20460;-93
2022/06/26 11:38:22;;;;;;;1.50;1.40;;;27.20;99.90;;;;;;5078764;28;20461;-93
2022/06/26 11:40:50;;;;;;;1.43;1.33;;;27.30;99.90;;;;;;5077166;28;20435;-93
2022/06/26 11:43:18;;;;;;;2.00;1.53;;;27.40;99.90;;;;;;5076381;28;20452;-93
2022/06/26 11:45:45;;;;;;;1.43;1.33;;;27.50;99.90;;;;;;5076923;28;20440;-93
2022/06/26 11:48:16;;;;;;;1.83;1.33;;;27.60;99.90;;;;;;5076264;28;20535;-93
2022/06/26 11:50:45;;;;;;;1.50;1.40;;;27.70;99.90;;;;;;5075927;28;20456;-93
2022/06/26 11:53:20;;;;;;;1.60;1.50;;;27.70;99.90;;;;;;5076340;28;20464;-92
2022/06/26 11:55:49;;;;;;;4.63;1.50;;;27.80;99.90;;;;;;5074163;28;20460;-94
2022/06/26 11:58:17;;;;;;;1.40;1.30;;;27.90;99.90;;;;;;5071897;28;20481;-94
2022/06/26 12:00:44;;;;;;;1.80;1.53;;;28.00;99.90;;;;;;5067138;28;20461;-93
2022/06/26 12:03:13;;;;;;;2.13;1.70;;;28.10;99.90;;;;;;5066357;28;20477;-93
2022/06/26 12:05:41;;;;;;;1.57;1.47;;;28.20;99.90;;;;;;5062817;28;20480;-93
2022/06/26 12:08:17;;;;;;;1.67;1.57;;;28.30;99.90;;;;;;5065906;28;20489;-93
2022/06/26 12:10:50;;;;;;;2.00;1.70;;;28.40;99.90;;;;;;5067001;28;20472;-93
2022/06/26 12:13:25;;;;;;;1.80;1.13;;;28.50;99.90;;;;;;5066485;28;20985;-94
2022/06/26 12:15:52;;;;;;;1.70;1.60;;;28.50;99.90;;;;;;5067906;28;20456;-93
2022/06/26 12:18:19;;;;;;;1.40;1.30;;;28.70;99.90;;;;;;5065891;28;20485;-93
2022/06/26 12:20:51;;;;;;;2.00;1.37;;;28.70;99.90;;;;;;5064150;28;20464;-93
2022/06/26 12:23:31;;;;;;;2.13;1.70;;;28.60;99.90;;;;;;5064360;28;20460;-93
2022/06/26 12:26:06;;;;;;;1.53;1.43;;;28.70;99.90;;;;;;5067338;28;20443;-94
2022/06/26 12:28:33;;;;;;;1.67;1.33;;;28.70;99.90;;;;;;5065068;28;20486;-93
2022/06/26 12:31:00;;;;;;;1.40;1.30;;;28.70;99.90;;;;;;5063365;28;20471;-94
2022/06/26 12:33:27;;;;;;;2.37;1.70;;;28.70;99.90;;;;;;5066450;28;20482;-93
2022/06/26 12:35:54;;;;;;;2.50;1.50;;;28.80;99.90;;;;;;5066459;28;20533;-93
2022/06/26 12:38:27;;;;;;;1.60;1.50;;;28.90;99.90;;;;;;5064536;28;20481;-93
2022/06/26 12:40:54;;;;;;;1.70;1.60;;;29.00;99.90;;;;;;5064978;28;20518;-92
2022/06/26 12:43:21;;;;;;;1.87;1.50;;;29.00;99.90;;;;;;5064891;28;20455;-92
2022/06/26 12:45:48;;;;;;;1.70;1.60;;;29.00;99.90;;;;;;5067541;28;20480;-92
2022/06/26 12:48:14;;;;;;;1.87;1.77;;;29.00;99.90;;;;;;5070295;28;20489;-94
2022/06/26 12:50:41;;;;;;;1.87;1.40;;;29.20;99.90;;;;;;5069957;28;20455;-92
2022/06/26 12:53:09;;;;;;;1.63;1.53;;;29.20;99.90;;;;;;5071703;28;20446;-93
2022/06/26 12:55:37;;;;;;;1.40;1.30;;;29.10;99.90;;;;;;5072490;28;20514;-93
2022/06/26 12:58:04;;;;;;;1.27;1.17;;;29.20;99.90;;;;;;5074232;28;20475;-92
2022/06/26 13:00:31;;;;;;;1.70;1.50;;;29.30;99.90;;;;;;5075709;28;20464;-93
2022/06/26 13:02:58;;;;;;;1.70;1.50;;;29.30;99.90;;;;;;5071260;28;20458;-93
2022/06/26 13:05:25;;;;;;;1.40;1.30;;;29.40;99.90;;;;;;5067882;28;20480;-93
2022/06/26 13:07:51;;;;;;;1.60;1.50;;;29.60;99.90;;;;;;5068019;28;20505;-93
2022/06/26 13:10:18;;;;;;;1.60;1.40;;;29.60;99.90;;;;;;5071556;28;20468;-93